< Cyclone 201314 2013 Season Cyclone 201318 >
Cyclone 201317 (Victoria)
General InformationDetailed Track InformationTrack Information on Google MapsList of All Images || ResourceGoogle EarthGE AnimationAtom FeedGeoJSON
Detalied Best Track Wind (Time Zone = UTC)
Year Month Day Hour Lat. Long. Wind (kt) Gust (kt) Direc. of Major Storm Axis Radius of Major Storm Axis (nm) Radius of Minor Storm Axis (nm) Direc. of Major Gale Axis Radius of Major Gale Axis (nm) Radius of Minor Gale Axis (nm) Image
2013 4 6 12 -5.6 99.2 15 45 symmetric - - symmetric - - Image
2013 4 6 18 -6.0 99.4 15 45 symmetric - - symmetric - - Image
2013 4 6 23 -6.4 99.5 17.5 -1 symmetric - - symmetric - - Image
2013 4 7 00 -6.7 99.6 20 45 symmetric - - symmetric - - Image
2013 4 7 06 -7.7 100.0 20 45 symmetric - - symmetric - - Image
2013 4 7 12 -8.2 100.4 25 45 symmetric - - symmetric - - Image
2013 4 7 18 -8.6 100.9 30 45 symmetric - - symmetric - - Image
2013 4 8 00 -9.1 101.3 35 50 symmetric - - symmetric - - Image
2013 4 8 06 -9.3 101.6 35 50 symmetric - - symmetric - - Image
2013 4 8 12 -9.8 102.0 35 50 symmetric - - symmetric - - Image
2013 4 8 18 -10.4 102.3 35 50 symmetric - - symmetric - - Image
2013 4 9 00 -11.3 102.5 40 55 symmetric - - symmetric - - Image
2013 4 9 06 -12.3 102.8 45 65 symmetric - - symmetric - - Image
2013 4 9 11 -13.1 103.0 51.6667 -1 symmetric - - symmetric - - Image
2013 4 9 12 -13.3 103.1 55 75 symmetric - - symmetric - - Image
2013 4 9 18 -14.0 103.3 65 90 symmetric - - symmetric - - Image
2013 4 10 00 -14.8 103.5 75 105 symmetric - - symmetric - - Image
2013 4 10 06 -15.3 103.8 75 105 symmetric - - symmetric - - Image
2013 4 10 12 -15.7 104.0 75 105 symmetric - - symmetric - - Image
2013 4 10 18 -16.3 104.2 65 90 symmetric - - symmetric - - Image
2013 4 11 00 -17.3 104.3 55 75 symmetric - - symmetric - - Image
2013 4 11 06 -18.7 104.6 45 65 symmetric - - symmetric - - Image
2013 4 11 12 -20.1 104.9 40 55 symmetric - - symmetric - - Image
2013 4 11 18 -21.7 105.3 35 50 symmetric - - symmetric - - Image
2013 4 12 00 -24.4 105.6 30 45 symmetric - - symmetric - - Image
< Cyclone 201314 2013 Season Cyclone 201318 >

Help